Time;durP1;ratioP1;P1;durP2;ratioP2;P2;SDS_P1;SDS_P2;PMS_P1;PMS_P2;Temp;Humidity;BMP_temperature;BMP_pressure;BME280_temperature;BME280_humidity;BME280_pressure;Samples;Min_cycle;Max_cycle;Signal;HPM_P1;HPM_P2
2022/08/07 00:00:19;;;;;;;76.95;7.50;;;;;;;;;;4215551;28;20051;-61
2022/08/07 00:02:23;;;;;;;106.82;8.73;;;;;;;;;;4215896;28;20016;-61
2022/08/07 00:04:24;;;;;;;79.18;7.40;;;;;;;;;;4215428;28;20101;-61
2022/08/07 00:06:27;;;;;;;97.22;8.15;;;;;;;;;;4215858;28;20051;-61
2022/08/07 00:08:28;;;;;;;93.15;7.38;;;;;;;;;;4215118;28;20463;-61
2022/08/07 00:10:32;;;;;;;75.05;8.23;;;;;;;;;;4214491;28;20043;-61
2022/08/07 00:12:32;;;;;;;75.70;6.85;;;;;;;;;;4215263;28;20805;-61
2022/08/07 00:14:36;;;;;;;72.00;6.78;;;;;;;;;;4215124;28;20277;-61
2022/08/07 00:16:37;;;;;;;62.92;6.70;;;;;;;;;;4215200;28;20032;-61
2022/08/07 00:18:38;;;;;;;63.22;6.03;;;;;;;;;;4214946;28;20124;-61
2022/08/07 00:20:39;;;;;;;47.20;6.10;;;;;;;;;;4214884;28;20024;-60
2022/08/07 00:22:40;;;;;;;45.22;6.20;;;;;;;;;;4214904;28;20103;-61
2022/08/07 00:24:41;;;;;;;52.25;7.28;;;;;;;;;;4214599;28;20089;-60
2022/08/07 00:26:42;;;;;;;40.13;5.53;;;;;;;;;;4214429;28;20062;-61
2022/08/07 00:28:47;;;;;;;34.47;5.38;;;;;;;;;;4214865;28;20387;-61
2022/08/07 00:30:48;;;;;;;33.72;6.47;;;;;;;;;;4214529;28;20060;-61
2022/08/07 00:32:49;;;;;;;43.78;6.00;;;;;;;;;;4214820;28;20415;-61
2022/08/07 00:34:50;;;;;;;46.10;5.50;;;;;;;;;;4214865;28;20085;-61
2022/08/07 00:36:51;;;;;;;39.15;5.40;;;;;;;;;;4215320;28;20031;-61
2022/08/07 00:38:52;;;;;;;30.75;5.10;;;;;;;;;;4213177;28;20032;-61
2022/08/07 00:40:53;;;;;;;33.88;5.47;;;;;;;;;;4192136;28;20028;-61
2022/08/07 00:42:55;;;;;;;44.65;4.93;;;;;;;;;;4197872;28;20150;-61
2022/08/07 00:44:56;;;;;;;31.92;5.22;;;;;;;;;;4197655;28;20028;-61
2022/08/07 00:46:56;;;;;;;39.75;4.97;;;;;;;;;;4198020;28;20040;-61
2022/08/07 00:49:01;;;;;;;41.13;5.22;;;;;;;;;;4197830;28;20112;-61
2022/08/07 00:51:04;;;;;;;28.85;4.72;;;;;;;;;;4197481;28;20109;-61
2022/08/07 00:53:05;;;;;;;31.27;4.20;;;;;;;;;;4196790;28;20029;-61
2022/08/07 00:55:06;;;;;;;26.13;4.10;;;;;;;;;;4197842;28;20115;-61
2022/08/07 00:57:09;;;;;;;19.13;4.47;;;;;;;;;;4198108;28;20074;-61
2022/08/07 00:59:13;;;;;;;28.38;5.13;;;;;;;;;;4198392;28;20033;-61
2022/08/07 01:01:14;;;;;;;20.47;5.47;;;;;;;;;;4197750;28;20044;-62
2022/08/07 01:03:17;;;;;;;18.35;4.30;;;;;;;;;;4202695;28;20040;-61
2022/08/07 01:05:18;;;;;;;17.90;3.92;;;;;;;;;;4214386;28;20085;-63
2022/08/07 01:07:20;;;;;;;13.77;4.00;;;;;;;;;;4214449;28;20036;-61
2022/08/07 01:09:27;;;;;;;19.00;4.05;;;;;;;;;;4214204;28;20089;-61
2022/08/07 01:11:29;;;;;;;21.92;4.68;;;;;;;;;;4214339;28;20441;-61
2022/08/07 01:13:30;;;;;;;15.57;3.90;;;;;;;;;;4214103;28;20036;-61
2022/08/07 01:15:31;;;;;;;15.60;4.47;;;;;;;;;;4214460;28;20077;-61
2022/08/07 01:17:32;;;;;;;17.15;4.45;;;;;;;;;;4214506;28;20040;-61
2022/08/07 01:19:33;;;;;;;15.80;4.88;;;;;;;;;;4213960;28;20070;-61
2022/08/07 01:21:34;;;;;;;15.07;3.85;;;;;;;;;;4213784;28;20871;-61
2022/08/07 01:23:36;;;;;;;12.98;3.67;;;;;;;;;;4214033;28;20040;-61
2022/08/07 01:25:39;;;;;;;11.38;3.90;;;;;;;;;;4212536;28;20507;-62
2022/08/07 01:27:42;;;;;;;19.48;4.40;;;;;;;;;;4212856;28;20036;-61
2022/08/07 01:29:43;;;;;;;13.07;4.28;;;;;;;;;;4212868;28;20493;-61
2022/08/07 01:31:44;;;;;;;18.60;3.63;;;;;;;;;;4214421;28;20036;-61
2022/08/07 01:33:46;;;;;;;12.05;3.80;;;;;;;;;;4214353;28;20343;-61
2022/08/07 01:35:47;;;;;;;8.80;3.60;;;;;;;;;;4213951;28;20410;-61
2022/08/07 01:37:48;;;;;;;11.57;4.55;;;;;;;;;;4214204;28;20032;-62
2022/08/07 01:39:49;;;;;;;14.93;3.83;;;;;;;;;;4213970;28;20410;-61
2022/08/07 01:41:50;;;;;;;11.90;4.00;;;;;;;;;;4214210;28;20043;-61
2022/08/07 01:43:51;;;;;;;9.75;4.13;;;;;;;;;;4213995;28;20044;-61
2022/08/07 01:45:53;;;;;;;13.98;4.20;;;;;;;;;;4214497;28;20158;-61
2022/08/07 01:47:54;;;;;;;12.40;3.70;;;;;;;;;;4214191;28;20433;-61
2022/08/07 01:49:54;;;;;;;8.30;3.70;;;;;;;;;;4213818;28;20040;-61
2022/08/07 01:52:01;;;;;;;12.82;3.40;;;;;;;;;;4213880;28;20093;-61
2022/08/07 01:54:03;;;;;;;11.93;3.78;;;;;;;;;;4213716;28;20105;-61
2022/08/07 01:56:13;;;;;;;8.68;3.67;;;;;;;;;;4214099;28;20540;-61
2022/08/07 01:58:15;;;;;;;10.63;4.05;;;;;;;;;;4214014;28;20070;-61
2022/08/07 02:00:16;;;;;;;13.55;4.30;;;;;;;;;;4213891;28;20552;-61
2022/08/07 02:02:22;;;;;;;10.10;3.78;;;;;;;;;;4213779;28;20036;-61
2022/08/07 02:04:37;;;;;;;9.55;4.28;;;;;;;;;;4214064;28;20081;-61
2022/08/07 02:06:38;;;;;;;;;;;;;;;;;;4215055;28;20050;-61
2022/08/07 02:08:40;;;;;;;6.85;3.70;;;;;;;;;;4214266;28;20002;-61
2022/08/07 02:10:41;;;;;;;10.07;3.55;;;;;;;;;;4212378;28;20044;-62
2022/08/07 02:12:45;;;;;;;7.43;4.30;;;;;;;;;;4213940;28;20036;-62
2022/08/07 02:14:47;;;;;;;7.57;3.47;;;;;;;;;;4213617;28;20410;-61
2022/08/07 02:16:50;;;;;;;6.07;3.60;;;;;;;;;;4213970;28;20032;-61
2022/08/07 02:18:51;;;;;;;11.73;3.85;;;;;;;;;;4213721;28;20032;-61
2022/08/07 02:20:53;;;;;;;6.43;3.65;;;;;;;;;;4213467;28;20402;-61
2022/08/07 02:22:56;;;;;;;7.35;3.55;;;;;;;;;;4213821;28;20040;-61
2022/08/07 02:25:00;;;;;;;9.85;3.70;;;;;;;;;;4213603;28;20488;-61
2022/08/07 02:27:02;;;;;;;11.20;3.53;;;;;;;;;;4213135;28;20089;-62
2022/08/07 02:29:04;;;;;;;7.97;3.75;;;;;;;;;;4213361;28;20463;-61
2022/08/07 02:31:07;;;;;;;6.85;3.47;;;;;;;;;;4213258;28;20121;-61
2022/08/07 02:33:08;;;;;;;7.38;3.45;;;;;;;;;;4214386;28;20109;-61
2022/08/07 02:35:09;;;;;;;5.38;3.50;;;;;;;;;;4216970;28;20032;-61
2022/08/07 02:37:14;;;;;;;6.85;3.28;;;;;;;;;;4216940;28;20429;-61
2022/08/07 02:39:15;;;;;;;;;;;;;;;;;;4217571;28;20089;-61
2022/08/07 02:41:16;;;;;;;4.00;3.22;;;;;;;;;;4216996;28;19915;-61
2022/08/07 02:43:17;;;;;;;7.55;3.40;;;;;;;;;;4217050;28;20426;-61
2022/08/07 02:45:18;;;;;;;5.15;3.63;;;;;;;;;;4216622;28;20066;-61
2022/08/07 02:47:19;;;;;;;7.57;3.92;;;;;;;;;;4216971;28;20085;-61
2022/08/07 02:49:20;;;;;;;9.35;3.78;;;;;;;;;;4216421;28;20036;-61
2022/08/07 02:51:23;;;;;;;9.93;4.00;;;;;;;;;;4216593;28;20040;-61
2022/08/07 02:53:25;;;;;;;9.30;3.88;;;;;;;;;;4216204;28;20036;-62
2022/08/07 02:55:27;;;;;;;7.95;4.10;;;;;;;;;;4216708;28;20032;-61
2022/08/07 02:57:29;;;;;;;6.93;3.83;;;;;;;;;;4216202;28;20473;-61
2022/08/07 02:59:30;;;;;;;7.55;3.42;;;;;;;;;;4216745;28;20020;-61
2022/08/07 03:01:31;;;;;;;7.20;4.05;;;;;;;;;;4216740;28;20078;-61
2022/08/07 03:03:34;;;;;;;6.78;4.22;;;;;;;;;;4216553;28;20031;-61
2022/08/07 03:05:35;;;;;;;6.18;3.33;;;;;;;;;;4216565;28;20031;-61
2022/08/07 03:07:40;;;;;;;8.57;3.53;;;;;;;;;;4216559;28;20032;-61
2022/08/07 03:09:41;;;;;;;6.32;3.45;;;;;;;;;;4216156;28;20036;-61
2022/08/07 03:11:42;;;;;;;6.95;3.60;;;;;;;;;;4216540;28;20032;-62
2022/08/07 03:13:43;;;;;;;5.30;3.22;;;;;;;;;;4216178;28;20028;-61
2022/08/07 03:15:44;;;;;;;5.90;3.60;;;;;;;;;;4216476;28;20541;-61
2022/08/07 03:17:48;;;;;;;5.15;3.60;;;;;;;;;;4216394;28;20467;-61
2022/08/07 03:19:49;;;;;;;4.25;3.40;;;;;;;;;;4216023;28;20093;-61
2022/08/07 03:21:51;;;;;;;5.82;3.45;;;;;;;;;;4216315;28;20039;-61
2022/08/07 03:23:56;;;;;;;10.93;3.83;;;;;;;;;;4215884;28;20040;-61
2022/08/07 03:25:59;;;;;;;6.28;3.15;;;;;;;;;;4215991;28;20098;-61
2022/08/07 03:28:01;;;;;;;7.63;3.78;;;;;;;;;;4216256;28;20035;-61
2022/08/07 03:30:02;;;;;;;3.80;3.28;;;;;;;;;;4215508;28;20044;-62
2022/08/07 03:32:05;;;;;;;10.65;3.70;;;;;;;;;;4216107;28;20032;-61
2022/08/07 03:34:07;;;;;;;5.25;3.17;;;;;;;;;;4216149;28;20036;-61
2022/08/07 03:36:09;;;;;;;6.28;3.65;;;;;;;;;;4215996;28;20089;-61
2022/08/07 03:38:10;;;;;;;5.10;3.63;;;;;;;;;;4216208;28;20036;-61
2022/08/07 03:40:12;;;;;;;6.35;3.38;;;;;;;;;;4215701;28;20474;-61
2022/08/07 03:42:14;;;;;;;5.00;3.53;;;;;;;;;;4216050;28;20528;-61
2022/08/07 03:44:15;;;;;;;7.78;3.80;;;;;;;;;;4215932;28;20035;-61
2022/08/07 03:46:16;;;;;;;6.82;3.58;;;;;;;;;;4215051;28;20081;-61
2022/08/07 03:48:17;;;;;;;9.13;3.78;;;;;;;;;;4216012;28;20448;-61
2022/08/07 03:50:19;;;;;;;5.10;3.67;;;;;;;;;;4215440;28;20065;-61
2022/08/07 03:52:21;;;;;;;7.28;4.03;;;;;;;;;;4215842;28;20093;-61
2022/08/07 03:54:22;;;;;;;5.03;3.55;;;;;;;;;;4211047;28;20093;-61
2022/08/07 03:56:24;;;;;;;5.15;3.10;;;;;;;;;;4215653;28;20035;-62
2022/08/07 03:58:25;;;;;;;6.32;3.42;;;;;;;;;;4210020;28;20165;-61
2022/08/07 04:00:27;;;;;;;5.72;3.20;;;;;;;;;;4215292;28;20040;-61
2022/08/07 04:02:29;;;;;;;7.25;3.30;;;;;;;;;;4215182;28;20109;-61
2022/08/07 04:04:30;;;;;;;5.00;3.33;;;;;;;;;;4215657;28;20032;-61
2022/08/07 04:06:32;;;;;;;7.68;3.50;;;;;;;;;;4214385;28;20039;-61
2022/08/07 04:08:33;;;;;;;4.75;3.47;;;;;;;;;;4215941;28;20471;-62
2022/08/07 04:10:35;;;;;;;4.40;3.47;;;;;;;;;;4215163;28;20437;-62
2022/08/07 04:12:36;;;;;;;5.13;3.58;;;;;;;;;;4215746;28;20044;-61
2022/08/07 04:14:38;;;;;;;5.43;3.22;;;;;;;;;;4215967;28;20344;-61
2022/08/07 04:16:39;;;;;;;5.70;3.75;;;;;;;;;;4214370;28;20357;-61
2022/08/07 04:18:39;;;;;;;6.45;3.10;;;;;;;;;;4215277;28;20097;-61
2022/08/07 04:20:41;;;;;;;4.28;3.70;;;;;;;;;;4215150;28;20028;-61
2022/08/07 04:22:42;;;;;;;7.35;3.88;;;;;;;;;;4214720;28;20040;-61
2022/08/07 04:24:43;;;;;;;4.75;3.10;;;;;;;;;;4214561;28;20040;-61
2022/08/07 04:26:47;;;;;;;9.52;3.97;;;;;;;;;;4215177;28;20089;-61
2022/08/07 04:28:48;;;;;;;5.80;3.40;;;;;;;;;;4215599;28;20447;-61
2022/08/07 04:30:50;;;;;;;4.43;3.33;;;;;;;;;;4214937;28;20101;-61
2022/08/07 04:32:51;;;;;;;4.88;3.33;;;;;;;;;;4215190;28;20032;-61
2022/08/07 04:34:52;;;;;;;6.53;4.00;;;;;;;;;;4214951;28;20040;-61
2022/08/07 04:36:56;;;;;;;4.32;3.30;;;;;;;;;;4215088;28;20036;-61
2022/08/07 04:38:57;;;;;;;5.37;3.40;;;;;;;;;;4215071;28;20093;-61
2022/08/07 04:40:58;;;;;;;5.50;3.70;;;;;;;;;;4214608;28;20031;-61
2022/08/07 04:42:59;;;;;;;8.32;4.28;;;;;;;;;;4215255;28;20525;-61
2022/08/07 04:45:01;;;;;;;3.92;3.42;;;;;;;;;;4214735;28;20063;-62
2022/08/07 04:47:07;;;;;;;5.53;3.55;;;;;;;;;;4214506;28;20085;-62
2022/08/07 04:49:10;;;;;;;5.00;3.40;;;;;;;;;;4215564;28;20024;-61
2022/08/07 04:51:17;;;;;;;5.53;3.20;;;;;;;;;;4214673;28;20048;-61
2022/08/07 04:53:21;;;;;;;4.03;3.45;;;;;;;;;;4214996;28;20032;-61
2022/08/07 04:55:30;;;;;;;5.47;3.50;;;;;;;;;;4214827;28;20453;-61
2022/08/07 04:57:37;;;;;;;5.45;3.88;;;;;;;;;;4213894;28;20028;-61
2022/08/07 04:59:56;;;;;;;6.18;3.80;;;;;;;;;;4214427;28;20471;-61
2022/08/07 05:02:09;;;;;;;5.22;3.58;;;;;;;;;;4214730;28;20028;-61
2022/08/07 05:04:13;;;;;;;5.38;3.50;;;;;;;;;;4214603;28;20089;-61
2022/08/07 05:06:18;;;;;;;5.43;3.63;;;;;;;;;;4214685;28;20032;-61
2022/08/07 05:08:35;;;;;;;5.82;3.90;;;;;;;;;;4214711;28;20032;-62
2022/08/07 05:10:39;;;;;;;4.35;3.35;;;;;;;;;;4214257;28;20437;-61
2022/08/07 05:12:59;;;;;;;6.40;3.92;;;;;;;;;;4214335;28;20433;-62
2022/08/07 05:15:15;;;;;;;4.40;3.30;;;;;;;;;;4214254;28;20472;-61
2022/08/07 05:17:18;;;;;;;3.72;3.22;;;;;;;;;;4214609;28;20036;-61
2022/08/07 05:19:19;;;;;;;6.20;3.83;;;;;;;;;;4213991;28;20090;-61
2022/08/07 05:21:22;;;;;;;4.40;3.33;;;;;;;;;;4213662;28;20429;-61
2022/08/07 05:23:29;;;;;;;5.50;3.58;;;;;;;;;;4214261;28;20028;-61
2022/08/07 05:25:31;;;;;;;4.72;3.30;;;;;;;;;;4214293;28;20044;-62
2022/08/07 05:27:31;;;;;;;3.03;2.72;;;;;;;;;;4213814;28;20368;-61
2022/08/07 05:29:35;;;;;;;3.92;3.13;;;;;;;;;;4213969;28;20130;-62
2022/08/07 05:31:38;;;;;;;4.57;3.33;;;;;;;;;;4214336;28;20093;-61
2022/08/07 05:33:42;;;;;;;5.72;3.90;;;;;;;;;;4213921;28;20089;-61
2022/08/07 05:35:43;;;;;;;4.43;3.90;;;;;;;;;;4214373;28;20031;-61
2022/08/07 05:37:45;;;;;;;7.45;3.50;;;;;;;;;;4214369;28;20089;-61
2022/08/07 05:39:46;;;;;;;6.07;3.30;;;;;;;;;;4213717;28;20081;-61
2022/08/07 05:41:47;;;;;;;4.30;3.28;;;;;;;;;;4214725;28;20398;-61
2022/08/07 05:43:50;;;;;;;4.95;3.72;;;;;;;;;;4214149;28;20032;-61
2022/08/07 05:45:51;;;;;;;7.13;3.45;;;;;;;;;;4214464;28;20036;-62
2022/08/07 05:48:14;;;;;;;4.47;3.30;;;;;;;;;;4213705;28;20032;-61
2022/08/07 05:50:13;;;;;;;5.28;3.22;;;;;;;;;;4213601;28;20089;-61
2022/08/07 05:52:14;;;;;;;6.82;4.95;;;;;;;;;;4213940;28;20105;-61
2022/08/07 05:54:18;;;;;;;3.40;3.10;;;;;;;;;;4213661;28;20089;-61
2022/08/07 05:56:20;;;;;;;3.92;3.50;;;;;;;;;;4214051;28;20036;-61
2022/08/07 05:58:23;;;;;;;4.03;3.03;;;;;;;;;;4213643;28;20417;-62
2022/08/07 06:00:24;;;;;;;5.40;3.38;;;;;;;;;;4213427;28;20044;-61
2022/08/07 06:02:27;;;;;;;4.90;3.00;;;;;;;;;;4214018;28;20032;-61
2022/08/07 06:04:28;;;;;;;3.72;3.33;;;;;;;;;;4214117;28;20433;-61
2022/08/07 06:06:31;;;;;;;6.20;2.95;;;;;;;;;;4213832;28;20451;-61
2022/08/07 06:08:32;;;;;;;5.35;3.45;;;;;;;;;;4216669;28;20449;-61
2022/08/07 06:10:34;;;;;;;4.32;3.30;;;;;;;;;;4218993;28;20036;-62
2022/08/07 06:12:35;;;;;;;4.65;3.50;;;;;;;;;;4217950;28;20078;-61
2022/08/07 06:14:36;;;;;;;3.30;2.90;;;;;;;;;;4219708;28;20473;-61
2022/08/07 06:16:37;;;;;;;4.68;2.88;;;;;;;;;;4219452;28;20070;-61
2022/08/07 06:18:39;;;;;;;4.45;3.58;;;;;;;;;;4219200;28;20093;-61
2022/08/07 06:20:40;;;;;;;4.68;3.20;;;;;;;;;;4219564;28;20024;-62
2022/08/07 06:22:41;;;;;;;6.50;3.45;;;;;;;;;;4219257;28;20040;-62
2022/08/07 06:24:42;;;;;;;3.72;2.75;;;;;;;;;;4219183;28;20453;-62
2022/08/07 06:26:43;;;;;;;4.72;3.30;;;;;;;;;;4219743;28;20188;-62
2022/08/07 06:28:48;;;;;;;5.43;3.67;;;;;;;;;;4218836;28;20097;-61
2022/08/07 06:30:49;;;;;;;3.47;2.85;;;;;;;;;;4219105;28;20048;-61
2022/08/07 06:32:49;;;;;;;5.15;3.10;;;;;;;;;;4219506;28;20149;-61
2022/08/07 06:34:50;;;;;;;6.38;3.15;;;;;;;;;;4219607;28;20183;-61
2022/08/07 06:36:51;;;;;;;6.80;3.42;;;;;;;;;;4219105;28;20071;-61
2022/08/07 06:38:53;;;;;;;5.03;3.17;;;;;;;;;;4219418;28;20032;-61
2022/08/07 06:40:54;;;;;;;3.95;3.00;;;;;;;;;;4218745;28;20089;-62
2022/08/07 06:42:56;;;;;;;3.85;3.28;;;;;;;;;;4219288;28;20110;-61
2022/08/07 06:44:57;;;;;;;6.57;3.40;;;;;;;;;;4219053;28;20105;-61
2022/08/07 06:46:58;;;;;;;3.50;2.85;;;;;;;;;;4219153;28;20468;-61
2022/08/07 06:49:02;;;;;;;4.40;3.13;;;;;;;;;;4219056;28;20032;-62
2022/08/07 06:51:06;;;;;;;3.25;2.95;;;;;;;;;;4218878;28;20044;-61
2022/08/07 06:53:07;;;;;;;5.03;3.25;;;;;;;;;;4219100;28;20081;-61
2022/08/07 06:55:09;;;;;;;3.65;2.60;;;;;;;;;;4219606;28;20077;-62
2022/08/07 06:57:12;;;;;;;4.55;3.33;;;;;;;;;;4216862;28;20032;-61
2022/08/07 06:59:14;;;;;;;3.72;3.10;;;;;;;;;;4219166;28;20085;-61
2022/08/07 07:01:15;;;;;;;4.57;3.65;;;;;;;;;;4219036;28;20553;-61
2022/08/07 07:03:16;;;;;;;6.22;2.80;;;;;;;;;;4218676;28;20032;-62
2022/08/07 07:05:19;;;;;;;3.95;2.70;;;;;;;;;;4219173;28;20468;-61
2022/08/07 07:07:20;;;;;;;3.40;2.38;;;;;;;;;;4218822;28;20036;-61
2022/08/07 07:09:25;;;;;;;5.18;2.65;;;;;;;;;;4219107;28;20036;-62
2022/08/07 07:11:26;;;;;;;3.58;2.90;;;;;;;;;;4218584;28;20483;-61
2022/08/07 07:13:32;;;;;;;4.97;3.30;;;;;;;;;;4219646;28;20016;-61
2022/08/07 07:15:35;;;;;;;4.45;2.97;;;;;;;;;;4218946;28;20032;-61
2022/08/07 07:17:39;;;;;;;2.80;2.58;;;;;;;;;;4218984;28;20036;-61
2022/08/07 07:19:43;;;;;;;6.13;2.83;;;;;;;;;;4216868;28;20028;-62
2022/08/07 07:21:44;;;;;;;5.00;3.03;;;;;;;;;;4216872;28;20020;-62
2022/08/07 07:23:46;;;;;;;3.05;2.75;;;;;;;;;;4216069;28;20097;-61
2022/08/07 07:25:49;;;;;;;4.55;3.28;;;;;;;;;;4216146;28;20105;-62
2022/08/07 07:27:53;;;;;;;2.65;2.45;;;;;;;;;;4213967;28;20032;-61
2022/08/07 07:29:57;;;;;;;4.40;3.20;;;;;;;;;;4216055;28;20036;-61
2022/08/07 07:31:59;;;;;;;3.85;2.78;;;;;;;;;;4216208;28;20386;-61
2022/08/07 07:34:05;;;;;;;3.90;3.00;;;;;;;;;;4214453;28;20367;-61
2022/08/07 07:36:07;;;;;;;4.55;2.75;;;;;;;;;;4216133;28;20028;-62
2022/08/07 07:38:08;;;;;;;4.13;2.55;;;;;;;;;;4216131;28;20112;-62
2022/08/07 07:40:13;;;;;;;5.78;3.00;;;;;;;;;;4215732;28;20036;-61
2022/08/07 07:42:14;;;;;;;3.28;2.97;;;;;;;;;;4216049;28;20082;-62
2022/08/07 07:44:17;;;;;;;4.32;2.63;;;;;;;;;;4216036;28;20036;-61
2022/08/07 07:46:18;;;;;;;4.90;2.95;;;;;;;;;;4214299;28;20085;-62
2022/08/07 07:48:20;;;;;;;3.83;2.90;;;;;;;;;;4216299;28;20077;-61
2022/08/07 07:50:22;;;;;;;5.47;3.10;;;;;;;;;;4215429;28;20098;-62
2022/08/07 07:52:24;;;;;;;4.32;2.80;;;;;;;;;;4215011;28;20109;-61
2022/08/07 07:54:26;;;;;;;2.97;1.98;;;;;;;;;;4215699;28;20077;-61
2022/08/07 07:56:29;;;;;;;5.47;2.90;;;;;;;;;;4215694;28;20032;-62
2022/08/07 07:58:33;;;;;;;2.80;2.50;;;;;;;;;;4215423;28;20081;-62
2022/08/07 08:00:34;;;;;;;3.13;2.70;;;;;;;;;;4215511;28;20036;-62
2022/08/07 08:02:36;;;;;;;3.47;2.72;;;;;;;;;;4215445;28;20073;-62
2022/08/07 08:04:38;;;;;;;2.92;2.50;;;;;;;;;;4215709;28;20036;-61
2022/08/07 08:06:41;;;;;;;4.47;2.67;;;;;;;;;;4215616;28;20028;-61
2022/08/07 08:08:43;;;;;;;3.35;3.00;;;;;;;;;;4215594;28;20027;-62
2022/08/07 08:10:44;;;;;;;4.20;2.75;;;;;;;;;;4215083;28;20032;-62
2022/08/07 08:12:45;;;;;;;5.00;3.08;;;;;;;;;;4215538;28;20544;-61
2022/08/07 08:14:46;;;;;;;3.67;2.78;;;;;;;;;;4215481;28;20028;-62
2022/08/07 08:16:48;;;;;;;5.88;2.90;;;;;;;;;;4215550;28;20445;-61
2022/08/07 08:18:50;;;;;;;3.13;2.50;;;;;;;;;;4215631;28;20086;-62
2022/08/07 08:20:51;;;;;;;3.15;2.50;;;;;;;;;;4215112;28;20031;-61
2022/08/07 08:27:34;;;;;;;4.05;2.88;;;;;;;;;;4216379;28;20479;-61
2022/08/07 08:29:39;;;;;;;2.40;2.20;;;;;;;;;;4215055;28;20043;-61
2022/08/07 08:31:40;;;;;;;;;;;;;;;;;;4215404;28;20048;-61
2022/08/07 08:33:41;;;;;;;3.10;2.70;;;;;;;;;;4215672;28;19926;-62
2022/08/07 08:35:44;;;;;;;2.78;2.35;;;;;;;;;;4215214;28;20464;-61
2022/08/07 08:37:46;;;;;;;4.75;2.40;;;;;;;;;;4215271;28;20032;-62
2022/08/07 08:39:50;;;;;;;4.63;2.63;;;;;;;;;;4214511;28;20093;-61
2022/08/07 08:42:14;;;;;;;2.63;2.42;;;;;;;;;;4214717;28;20078;-61
2022/08/07 08:44:24;;;;;;;4.78;2.67;;;;;;;;;;4204161;28;20031;-62
2022/08/07 08:46:37;;;;;;;4.43;2.80;;;;;;;;;;4214917;28;20426;-61
2022/08/07 08:48:54;;;;;;;3.15;2.55;;;;;;;;;;4214883;28;20085;-62
2022/08/07 08:50:59;;;;;;;3.40;2.35;;;;;;;;;;4214732;28;20027;-62
2022/08/07 08:53:02;;;;;;;;;;;;;;;;;;4214927;28;20032;-61
2022/08/07 08:55:10;;;;;;;3.33;2.67;;;;;;;;;;4215212;28;20321;-62
2022/08/07 08:57:15;;;;;;;3.67;2.60;;;;;;;;;;4214970;28;20024;-62
2022/08/07 08:59:16;;;;;;;;;;;;;;;;;;4215449;28;20040;-61
2022/08/07 09:01:23;;;;;;;3.50;2.38;;;;;;;;;;4214911;28;19904;-61
2022/08/07 09:03:26;;;;;;;5.10;2.30;;;;;;;;;;4214944;28;20036;-61
2022/08/07 09:05:47;;;;;;;3.13;2.53;;;;;;;;;;4214892;28;20085;-61
2022/08/07 09:08:10;;;;;;;4.35;2.47;;;;;;;;;;4214697;28;20360;-61
2022/08/07 09:10:16;;;;;;;2.55;2.30;;;;;;;;;;4214427;28;20032;-61
2022/08/07 09:12:23;;;;;;;2.40;2.10;;;;;;;;;;4214559;28;20071;-62
2022/08/07 09:14:37;;;;;;;3.70;2.38;;;;;;;;;;4214604;28;20089;-61
2022/08/07 09:16:54;;;;;;;3.67;2.40;;;;;;;;;;4214389;28;20046;-61
2022/08/07 09:19:22;;;;;;;3.08;2.10;;;;;;;;;;4214986;28;20069;-62
2022/08/07 09:21:41;;;;;;;3.20;2.38;;;;;;;;;;4210636;28;20036;-61
2022/08/07 09:24:00;;;;;;;4.20;2.53;;;;;;;;;;4214395;28;20040;-62
2022/08/07 09:26:01;;;;;;;3.53;2.70;;;;;;;;;;4214307;28;20040;-62
2022/08/07 09:28:03;;;;;;;4.65;2.35;;;;;;;;;;4214312;28;20569;-61
2022/08/07 09:30:05;;;;;;;2.97;1.92;;;;;;;;;;4214106;28;20028;-61
2022/08/07 09:32:22;;;;;;;3.50;2.15;;;;;;;;;;4214302;28;20039;-61
2022/08/07 09:34:42;;;;;;;3.33;2.40;;;;;;;;;;4214417;28;20081;-62
2022/08/07 09:36:49;;;;;;;4.50;2.10;;;;;;;;;;4214064;28;20417;-62
2022/08/07 09:39:04;;;;;;;3.67;2.30;;;;;;;;;;4211314;28;20036;-62
2022/08/07 09:41:08;;;;;;;4.00;2.58;;;;;;;;;;4213727;28;20024;-61
2022/08/07 09:43:24;;;;;;;3.40;2.38;;;;;;;;;;4213712;28;20028;-61
2022/08/07 09:46:00;;;;;;;4.78;2.45;;;;;;;;;;4214256;28;20085;-61
2022/08/07 09:48:12;;;;;;;3.00;2.08;;;;;;;;;;4146510;28;20037;-61
2022/08/07 09:50:38;;;;;;;3.10;2.20;;;;;;;;;;4189185;28;20422;-61
2022/08/07 09:52:39;;;;;;;4.43;2.70;;;;;;;;;;4214098;28;20097;-61
2022/08/07 09:54:47;;;;;;;2.78;2.25;;;;;;;;;;4213908;28;20028;-61
2022/08/07 09:56:57;;;;;;;2.70;2.13;;;;;;;;;;4214024;28;20090;-61
2022/08/07 09:59:28;;;;;;;4.95;2.70;;;;;;;;;;4214666;28;20016;-61
2022/08/07 10:01:35;;;;;;;4.55;2.03;;;;;;;;;;4213865;28;20086;-61
2022/08/07 10:03:48;;;;;;;5.90;2.35;;;;;;;;;;4213861;28;20039;-61
2022/08/07 10:06:08;;;;;;;2.42;2.05;;;;;;;;;;4214029;28;20405;-62
2022/08/07 10:08:28;;;;;;;2.20;2.00;;;;;;;;;;4213770;28;20036;-61
2022/08/07 10:10:47;;;;;;;3.35;2.38;;;;;;;;;;4213588;28;20024;-61
2022/08/07 10:13:06;;;;;;;2.53;2.20;;;;;;;;;;4213876;28;20048;-61
2022/08/07 10:15:16;;;;;;;3.45;2.47;;;;;;;;;;4213982;28;20036;-61
2022/08/07 10:17:38;;;;;;;2.35;2.10;;;;;;;;;;4213908;28;20036;-61
2022/08/07 10:19:45;;;;;;;3.28;2.30;;;;;;;;;;4213470;28;20032;-62
2022/08/07 10:21:49;;;;;;;2.47;1.98;;;;;;;;;;4213844;28;20636;-62
2022/08/07 10:24:13;;;;;;;3.17;2.03;;;;;;;;;;4213881;28;20097;-61
2022/08/07 10:26:13;;;;;;;2.92;1.90;;;;;;;;;;4213800;28;20040;-62
2022/08/07 10:28:37;;;;;;;4.43;2.75;;;;;;;;;;4213701;28;20040;-61
2022/08/07 10:30:56;;;;;;;2.45;1.95;;;;;;;;;;4213034;28;20101;-61
2022/08/07 10:33:12;;;;;;;3.58;2.10;;;;;;;;;;4213690;28;20036;-61
2022/08/07 10:35:23;;;;;;;2.22;1.65;;;;;;;;;;4213673;28;20035;-61
2022/08/07 10:37:39;;;;;;;3.58;2.13;;;;;;;;;;4213814;28;20089;-62
2022/08/07 10:39:43;;;;;;;3.75;2.40;;;;;;;;;;4214013;28;20402;-62
2022/08/07 10:41:50;;;;;;;3.23;2.20;;;;;;;;;;4213848;28;20040;-61
2022/08/07 10:44:09;;;;;;;2.60;2.00;;;;;;;;;;4213845;28;20078;-61
2022/08/07 10:46:23;;;;;;;2.47;2.03;;;;;;;;;;4213722;28;20100;-62
2022/08/07 10:48:50;;;;;;;3.20;2.20;;;;;;;;;;4213206;28;20032;-61
2022/08/07 10:50:53;;;;;;;3.35;2.08;;;;;;;;;;4209346;28;20036;-61
2022/08/07 10:53:09;;;;;;;3.83;1.90;;;;;;;;;;4213194;28;20085;-61
2022/08/07 10:55:27;;;;;;;3.65;1.90;;;;;;;;;;4214338;28;20040;-61
2022/08/07 10:57:28;;;;;;;8.25;2.00;;;;;;;;;;4216637;28;20044;-62
2022/08/07 10:59:46;;;;;;;2.65;2.00;;;;;;;;;;4216918;28;20020;-61
2022/08/07 11:01:55;;;;;;;3.38;2.03;;;;;;;;;;4216585;28;20398;-61
2022/08/07 11:03:56;;;;;;;2.72;2.15;;;;;;;;;;4216647;28;20437;-61
2022/08/07 11:06:16;;;;;;;4.95;1.90;;;;;;;;;;4216476;28;20425;-61
2022/08/07 11:08:26;;;;;;;4.40;2.20;;;;;;;;;;4216742;28;20035;-61
2022/08/07 11:10:36;;;;;;;3.25;1.90;;;;;;;;;;4216456;28;20477;-61
2022/08/07 11:12:56;;;;;;;2.17;1.98;;;;;;;;;;4216514;28;20124;-62
2022/08/07 11:15:17;;;;;;;2.47;1.92;;;;;;;;;;4216563;28;20374;-61
2022/08/07 11:17:23;;;;;;;3.20;2.03;;;;;;;;;;4216410;28;20028;-61
2022/08/07 11:19:36;;;;;;;2.65;2.13;;;;;;;;;;4215794;28;20074;-61
2022/08/07 11:21:41;;;;;;;3.50;2.25;;;;;;;;;;4215998;28;20104;-62
2022/08/07 11:23:57;;;;;;;2.55;1.98;;;;;;;;;;4216358;28;20463;-62
2022/08/07 11:26:06;;;;;;;2.28;1.85;;;;;;;;;;4216399;28;20048;-61
2022/08/07 11:28:13;;;;;;;3.25;1.83;;;;;;;;;;4217062;28;20016;-62
2022/08/07 11:30:16;;;;;;;3.83;1.98;;;;;;;;;;4215799;28;20437;-61
2022/08/07 11:32:22;;;;;;;3.15;1.95;;;;;;;;;;4216231;28;20051;-61
2022/08/07 11:34:41;;;;;;;3.40;2.10;;;;;;;;;;4216740;28;20028;-62
2022/08/07 11:37:01;;;;;;;4.03;1.90;;;;;;;;;;4216096;28;20028;-61
2022/08/07 11:39:25;;;;;;;3.97;1.90;;;;;;;;;;4210816;28;20434;-62
2022/08/07 11:41:28;;;;;;;2.25;2.00;;;;;;;;;;4176655;28;20540;-61
2022/08/07 11:43:41;;;;;;;2.60;1.92;;;;;;;;;;4216139;28;20479;-61
2022/08/07 11:46:01;;;;;;;3.92;1.80;;;;;;;;;;4216053;28;20024;-62
2022/08/07 11:48:07;;;;;;;2.75;1.85;;;;;;;;;;4216579;28;20020;-61
2022/08/07 11:50:19;;;;;;;3.38;2.10;;;;;;;;;;4215722;28;20085;-62
2022/08/07 11:52:29;;;;;;;2.47;1.60;;;;;;;;;;4216484;28;20089;-61
2022/08/07 11:54:48;;;;;;;3.90;2.05;;;;;;;;;;4216302;28;20032;-62
2022/08/07 11:57:08;;;;;;;1.98;1.50;;;;;;;;;;4215896;28;20028;-61
2022/08/07 11:59:18;;;;;;;3.83;1.80;;;;;;;;;;4215826;28;20040;-61
2022/08/07 12:01:54;;;;;;;2.60;1.80;;;;;;;;;;4215884;28;20039;-62
2022/08/07 12:03:55;;;;;;;;;;;;;;;;;;4148318;28;20038;-61
2022/08/07 12:06:14;;;;;;;4.43;1.80;;;;;;;;;;4183566;28;19995;-61
2022/08/07 12:08:28;;;;;;;2.42;2.05;;;;;;;;;;4215717;28;20040;-61
2022/08/07 12:10:38;;;;;;;3.73;1.90;;;;;;;;;;4215136;28;20094;-61
2022/08/07 12:12:39;;;;;;;2.38;2.15;;;;;;;;;;4215728;28;20048;-61
2022/08/07 12:14:42;;;;;;;3.95;1.80;;;;;;;;;;4215425;28;20028;-61
2022/08/07 12:16:55;;;;;;;2.85;1.75;;;;;;;;;;4215643;28;20044;-62
2022/08/07 12:19:18;;;;;;;2.33;1.83;;;;;;;;;;4215474;28;20036;-62
2022/08/07 12:21:28;;;;;;;3.17;2.15;;;;;;;;;;4215428;28;20084;-62
2022/08/07 12:23:41;;;;;;;2.00;1.80;;;;;;;;;;4215778;28;20056;-61
2022/08/07 12:25:53;;;;;;;5.47;2.35;;;;;;;;;;4215796;28;20093;-62
2022/08/07 12:27:57;;;;;;;3.95;2.05;;;;;;;;;;4215468;28;20040;-62
2022/08/07 12:30:07;;;;;;;3.92;2.20;;;;;;;;;;4214773;28;20032;-62
2022/08/07 12:32:12;;;;;;;3.90;1.80;;;;;;;;;;4215363;28;20043;-62
2022/08/07 12:34:15;;;;;;;3.90;1.98;;;;;;;;;;4215338;28;20044;-61
2022/08/07 12:36:16;;;;;;;3.05;2.17;;;;;;;;;;4214894;28;20420;-62